createdAt,value
2018-08-31T00:00:09.887Z,2.87
2018-08-31T00:01:25.164Z,3.08
2018-08-31T00:02:39.849Z,3.10
2018-08-31T00:04:56.547Z,3.12
2018-08-31T00:06:11.974Z,2.58
2018-08-31T00:07:31.846Z,2.90
2018-08-31T00:10:47.707Z,2.90
2018-08-31T00:12:58.894Z,3.58
2018-08-31T00:14:03.119Z,3.40
2018-08-31T00:15:07.733Z,3.52
2018-08-31T00:16:12.072Z,3.87
2018-08-31T00:17:16.367Z,3.83
2018-08-31T00:18:20.527Z,3.30
2018-08-31T00:19:24.759Z,3.22
2018-08-31T00:20:29.271Z,3.25
2018-08-31T00:21:33.487Z,3.50
2018-08-31T00:22:37.838Z,2.70
2018-08-31T00:23:53.134Z,3.20
2018-08-31T00:26:08.909Z,3.45
2018-08-31T00:27:24.731Z,3.30
2018-08-31T00:30:46.680Z,2.98
2018-08-31T00:32:02.063Z,2.70
2018-08-31T00:33:17.523Z,2.98
2018-08-31T00:36:33.976Z,3.52
2018-08-31T00:39:53.052Z,3.20
2018-08-31T00:41:07.727Z,3.52
2018-08-31T00:44:39.320Z,5.00
2018-08-31T00:45:44.184Z,2.85
2018-08-31T00:46:48.347Z,4.78
2018-08-31T00:47:52.988Z,2.87
2018-08-31T00:48:57.355Z,3.98
2018-08-31T00:50:01.695Z,4.05
2018-08-31T00:51:06.014Z,3.25
2018-08-31T00:52:10.185Z,2.87
2018-08-31T00:53:14.372Z,3.60
2018-08-31T00:54:18.685Z,3.20
2018-08-31T00:55:22.862Z,3.20
2018-08-31T00:56:27.247Z,3.40
2018-08-31T00:57:31.687Z,6.00
2018-08-31T00:58:35.960Z,3.00
2018-08-31T00:59:40.199Z,3.05
2018-08-31T01:00:45.987Z,3.72
2018-08-31T01:01:50.233Z,3.35
2018-08-31T01:02:54.825Z,3.30
2018-08-31T01:03:59.251Z,3.98
2018-08-31T01:05:03.470Z,4.00
2018-08-31T01:06:07.656Z,2.83
2018-08-31T01:07:11.974Z,4.87
2018-08-31T01:08:16.676Z,3.35
2018-08-31T01:09:20.835Z,3.30
2018-08-31T01:10:25.790Z,3.30
2018-08-31T01:11:30.283Z,3.30
2018-08-31T01:12:34.465Z,4.40
2018-08-31T01:13:38.747Z,3.80
2018-08-31T01:14:42.973Z,4.55
2018-08-31T01:15:47.589Z,3.75
2018-08-31T01:16:51.892Z,4.05
2018-08-31T01:17:56.597Z,3.10
2018-08-31T01:19:00.858Z,2.95
2018-08-31T01:20:06.120Z,3.20
2018-08-31T01:21:11.482Z,3.40
2018-08-31T01:22:15.759Z,2.95
2018-08-31T01:23:20.029Z,3.60
2018-08-31T01:24:24.355Z,3.37
2018-08-31T01:25:28.573Z,3.33
2018-08-31T01:26:32.919Z,2.65
2018-08-31T01:27:37.613Z,3.45
2018-08-31T01:28:42.143Z,3.35
2018-08-31T01:29:46.559Z,3.27
2018-08-31T01:30:50.798Z,3.75
2018-08-31T01:31:55.051Z,4.28
2018-08-31T01:32:59.272Z,2.95
2018-08-31T01:34:03.794Z,3.37
2018-08-31T01:35:08.165Z,4.58
2018-08-31T01:36:12.842Z,3.35
2018-08-31T01:37:17.335Z,5.08
2018-08-31T01:38:22.327Z,3.10
2018-08-31T01:39:27.149Z,3.10
2018-08-31T01:40:32.007Z,4.60
2018-08-31T01:41:36.538Z,3.33
2018-08-31T01:42:40.781Z,3.30
2018-08-31T01:43:51.408Z,3.12
2018-08-31T01:44:55.908Z,3.42
2018-08-31T01:46:00.165Z,2.83
2018-08-31T01:47:04.384Z,2.98
2018-08-31T01:48:09.235Z,3.75
2018-08-31T01:49:13.736Z,4.03
2018-08-31T01:50:17.984Z,3.20
2018-08-31T01:51:23.005Z,3.33
2018-08-31T01:52:27.803Z,3.05
2018-08-31T01:53:32.040Z,3.35
2018-08-31T01:54:36.202Z,3.83
2018-08-31T01:55:41.046Z,3.75
2018-08-31T01:56:45.683Z,3.17
2018-08-31T01:57:50.802Z,3.75
2018-08-31T01:58:55.012Z,2.77
2018-08-31T01:59:59.238Z,3.80
2018-08-31T02:01:03.631Z,3.50
2018-08-31T02:02:08.265Z,3.25
2018-08-31T02:03:12.885Z,3.15
2018-08-31T02:04:17.218Z,3.55
2018-08-31T02:05:21.360Z,4.45
2018-08-31T02:06:25.684Z,4.08
2018-08-31T02:07:29.996Z,4.83
2018-08-31T02:08:34.441Z,4.83
2018-08-31T02:09:38.860Z,4.17
2018-08-31T02:10:43.425Z,3.92
2018-08-31T02:11:48.962Z,3.62
2018-08-31T02:12:53.249Z,4.25
2018-08-31T02:13:57.431Z,4.30
2018-08-31T02:15:01.639Z,4.35
2018-08-31T02:16:05.883Z,3.60
2018-08-31T02:17:10.190Z,3.37
2018-08-31T02:18:14.384Z,3.85
2018-08-31T02:19:18.601Z,5.35
2018-08-31T02:20:22.908Z,3.20
2018-08-31T02:21:27.089Z,3.92
2018-08-31T02:22:31.382Z,4.10
2018-08-31T02:23:35.771Z,3.87
2018-08-31T02:24:40.338Z,3.20
2018-08-31T02:25:44.552Z,3.37
2018-08-31T02:26:48.768Z,3.17
2018-08-31T02:27:53.000Z,3.95
2018-08-31T02:28:57.234Z,4.10
2018-08-31T02:30:01.473Z,3.77
2018-08-31T02:31:05.754Z,3.30
2018-08-31T02:32:10.248Z,3.33
2018-08-31T02:33:14.435Z,3.80
2018-08-31T02:34:19.208Z,3.67
2018-08-31T02:35:23.799Z,3.67
2018-08-31T02:36:28.053Z,4.62
2018-08-31T02:37:32.229Z,3.27
2018-08-31T02:38:36.512Z,3.85
2018-08-31T02:39:40.795Z,3.58
2018-08-31T02:40:44.971Z,3.90
2018-08-31T02:41:49.616Z,4.10
2018-08-31T02:42:53.852Z,4.55
2018-08-31T02:43:58.352Z,3.37
2018-08-31T02:45:02.640Z,4.42
2018-08-31T02:46:07.459Z,4.17
2018-08-31T02:47:12.440Z,3.85
2018-08-31T02:48:16.795Z,4.00
2018-08-31T02:49:21.669Z,4.10
2018-08-31T02:50:25.978Z,4.35
2018-08-31T02:51:30.432Z,3.40
2018-08-31T02:52:34.801Z,3.20
2018-08-31T02:53:39.321Z,4.12
2018-08-31T02:54:44.332Z,4.05
2018-08-31T02:55:48.539Z,5.10
2018-08-31T02:56:52.719Z,3.30
2018-08-31T02:57:56.936Z,3.35
2018-08-31T02:59:01.403Z,3.95
2018-08-31T03:00:06.242Z,4.62
2018-08-31T03:01:10.579Z,3.92
2018-08-31T03:02:14.929Z,3.80
2018-08-31T03:03:19.384Z,3.52
2018-08-31T03:04:24.161Z,4.35
2018-08-31T03:05:28.501Z,5.50
2018-08-31T03:06:32.843Z,4.12
2018-08-31T03:07:37.011Z,4.10
2018-08-31T03:08:41.247Z,4.00
2018-08-31T03:09:45.417Z,4.45
2018-08-31T03:10:49.742Z,4.20
2018-08-31T03:11:54.357Z,5.40
2018-08-31T03:12:58.543Z,3.85
2018-08-31T03:14:02.869Z,4.65
2018-08-31T03:15:07.271Z,4.42
2018-08-31T03:16:11.507Z,4.22
2018-08-31T03:17:15.739Z,3.62
2018-08-31T03:18:20.549Z,4.28
2018-08-31T03:19:24.784Z,4.60
2018-08-31T03:20:28.950Z,3.70
2018-08-31T03:21:33.291Z,3.85
2018-08-31T03:22:37.490Z,4.17
2018-08-31T03:23:41.824Z,3.90
2018-08-31T03:24:46.031Z,4.85
2018-08-31T03:25:50.377Z,4.50
2018-08-31T03:26:54.700Z,3.90
2018-08-31T03:27:58.904Z,3.72
2018-08-31T03:29:03.300Z,4.30
2018-08-31T03:30:07.667Z,3.65
2018-08-31T03:31:12.121Z,3.65
2018-08-31T03:32:16.352Z,4.17
2018-08-31T03:33:20.599Z,4.05
2018-08-31T03:34:24.981Z,3.87
2018-08-31T03:35:29.485Z,4.15
2018-08-31T03:36:34.043Z,3.95
2018-08-31T03:37:38.310Z,3.30
2018-08-31T03:38:42.996Z,3.58
2018-08-31T03:39:47.236Z,3.95
2018-08-31T03:40:51.415Z,3.95
2018-08-31T03:41:55.613Z,4.30
2018-08-31T03:43:00.090Z,4.10
2018-08-31T03:44:04.311Z,3.83
2018-08-31T03:45:08.968Z,3.95
2018-08-31T03:46:13.246Z,4.75
2018-08-31T03:47:17.400Z,4.35
2018-08-31T03:48:22.261Z,4.17
2018-08-31T03:49:27.054Z,4.33
2018-08-31T03:50:31.209Z,4.58
2018-08-31T03:51:35.432Z,4.45
2018-08-31T03:52:39.617Z,4.50
2018-08-31T03:53:44.178Z,4.35
2018-08-31T03:54:48.445Z,5.00
2018-08-31T03:55:53.022Z,4.70
2018-08-31T03:56:57.279Z,3.77
2018-08-31T03:58:01.513Z,4.42
2018-08-31T03:59:06.041Z,4.33
2018-08-31T04:00:11.071Z,4.03
2018-08-31T04:01:15.394Z,4.33
2018-08-31T04:02:19.735Z,4.00
2018-08-31T04:03:24.418Z,5.70
2018-08-31T04:04:28.643Z,4.37
2018-08-31T04:05:32.875Z,4.72
2018-08-31T04:06:37.053Z,4.03
2018-08-31T04:07:41.372Z,4.60
2018-08-31T04:08:45.580Z,4.55
2018-08-31T04:09:49.856Z,4.40
2018-08-31T04:10:54.047Z,4.72
2018-08-31T04:11:58.335Z,4.08
2018-08-31T04:13:02.639Z,5.08
2018-08-31T04:14:06.844Z,5.15
2018-08-31T04:15:11.452Z,3.60
2018-08-31T04:16:15.570Z,4.20
2018-08-31T04:17:19.800Z,4.35
2018-08-31T04:18:23.951Z,4.80
2018-08-31T04:19:28.219Z,4.97
2018-08-31T04:20:33.338Z,5.65
2018-08-31T04:21:37.533Z,4.17
2018-08-31T04:22:41.893Z,4.83
2018-08-31T04:23:46.057Z,4.55
2018-08-31T04:24:50.451Z,4.42
2018-08-31T04:25:54.650Z,4.25
2018-08-31T04:26:58.999Z,4.37
2018-08-31T04:28:03.184Z,4.65
2018-08-31T04:29:07.379Z,4.60
2018-08-31T04:30:11.594Z,4.25
2018-08-31T04:31:16.600Z,5.10
2018-08-31T04:32:21.329Z,4.53
2018-08-31T04:33:25.838Z,4.15
2018-08-31T04:34:30.228Z,4.53
2018-08-31T04:35:34.462Z,4.10
2018-08-31T04:36:38.903Z,3.75
2018-08-31T04:37:43.114Z,4.47
2018-08-31T04:38:47.859Z,4.35
2018-08-31T04:39:52.020Z,4.12
2018-08-31T04:40:56.227Z,4.08
2018-08-31T04:42:00.881Z,4.17
2018-08-31T04:43:05.569Z,4.22
2018-08-31T04:44:10.091Z,4.75
2018-08-31T04:45:14.278Z,4.83
2018-08-31T04:46:18.565Z,4.33
2018-08-31T04:47:23.248Z,4.65
2018-08-31T04:48:27.461Z,5.42
2018-08-31T04:49:31.639Z,3.77
2018-08-31T04:50:35.820Z,3.60
2018-08-31T04:51:40.135Z,4.10
2018-08-31T04:52:44.307Z,4.37
2018-08-31T04:53:48.601Z,3.75
2018-08-31T04:54:53.023Z,4.42
2018-08-31T04:55:57.195Z,4.30
2018-08-31T04:57:01.435Z,4.42
2018-08-31T04:58:05.679Z,4.30
2018-08-31T04:59:10.050Z,4.60
2018-08-31T05:00:14.320Z,3.92
2018-08-31T05:01:18.989Z,3.42
2018-08-31T05:02:23.491Z,4.28
2018-08-31T05:03:28.264Z,4.50
2018-08-31T05:04:32.748Z,4.50
2018-08-31T05:05:36.974Z,4.83
2018-08-31T05:06:41.210Z,4.35
2018-08-31T05:07:45.622Z,4.47
2018-08-31T05:08:49.931Z,4.30
2018-08-31T05:09:54.134Z,3.83
2018-08-31T05:10:58.974Z,4.30
2018-08-31T05:12:03.687Z,4.03
2018-08-31T05:13:08.094Z,3.40
2018-08-31T05:14:12.402Z,3.75
2018-08-31T05:15:17.162Z,4.00
2018-08-31T05:16:21.336Z,5.45
2018-08-31T05:17:25.577Z,4.33
2018-08-31T05:18:29.951Z,3.83
2018-08-31T05:19:34.178Z,4.22
2018-08-31T05:20:38.572Z,4.20
2018-08-31T05:21:42.777Z,3.37
2018-08-31T05:22:47.149Z,4.15
2018-08-31T05:23:51.369Z,3.87
2018-08-31T05:24:55.830Z,3.67
2018-08-31T05:26:00.516Z,4.62
2018-08-31T05:27:04.951Z,3.92
2018-08-31T05:28:09.358Z,3.90
2018-08-31T05:29:13.910Z,4.15
2018-08-31T05:30:18.107Z,4.35
2018-08-31T05:31:22.423Z,4.30
2018-08-31T05:32:26.641Z,4.28
2018-08-31T05:33:30.858Z,5.08
2018-08-31T05:34:35.459Z,4.03
2018-08-31T05:35:40.150Z,4.87
2018-08-31T05:36:44.970Z,4.15
2018-08-31T05:37:49.828Z,4.22
2018-08-31T05:38:54.138Z,4.40
2018-08-31T05:39:58.649Z,3.95
2018-08-31T05:41:02.901Z,4.53
2018-08-31T05:42:07.469Z,3.95
2018-08-31T05:43:11.981Z,7.03
2018-08-31T05:44:16.375Z,4.45
2018-08-31T05:45:21.242Z,4.25
2018-08-31T05:46:25.481Z,4.92
2018-08-31T05:47:30.049Z,4.85
2018-08-31T05:48:34.483Z,4.30
2018-08-31T05:49:39.056Z,4.53
2018-08-31T05:50:43.248Z,4.90
2018-08-31T05:51:48.022Z,4.10
2018-08-31T05:52:52.216Z,4.47
2018-08-31T05:53:56.530Z,4.90
2018-08-31T05:55:00.798Z,5.22
2018-08-31T05:56:04.998Z,4.75
2018-08-31T05:57:09.327Z,4.40
2018-08-31T05:58:13.582Z,4.65
2018-08-31T05:59:18.092Z,5.22
2018-08-31T06:00:22.374Z,4.80
2018-08-31T06:01:26.971Z,4.40
2018-08-31T06:02:31.264Z,4.60
2018-08-31T06:03:35.931Z,4.37
2018-08-31T06:04:40.527Z,4.67
2018-08-31T06:05:44.742Z,4.40
2018-08-31T06:06:49.055Z,4.30
2018-08-31T06:07:53.308Z,4.60
2018-08-31T06:08:57.455Z,5.00
2018-08-31T06:10:01.718Z,5.00
2018-08-31T06:11:06.531Z,4.45
2018-08-31T06:12:10.948Z,4.40
2018-08-31T06:13:15.869Z,4.80
2018-08-31T06:14:20.042Z,4.75
2018-08-31T06:15:24.192Z,4.30
2018-08-31T06:16:29.006Z,5.12
2018-08-31T06:17:33.351Z,4.37
2018-08-31T06:18:37.816Z,4.75
2018-08-31T06:19:42.741Z,5.22
2018-08-31T06:20:50.238Z,4.28
2018-08-31T06:21:54.631Z,4.78
2018-08-31T06:22:59.005Z,4.15
2018-08-31T06:24:03.331Z,5.53
2018-08-31T06:25:07.631Z,4.90
2018-08-31T06:26:11.945Z,4.15
2018-08-31T06:27:16.180Z,3.92
2018-08-31T06:28:20.372Z,5.47
2018-08-31T06:29:24.786Z,4.25
2018-08-31T06:30:28.962Z,4.30
2018-08-31T06:31:33.194Z,5.28
2018-08-31T06:32:37.542Z,4.30
2018-08-31T06:33:41.717Z,4.35
2018-08-31T06:34:45.926Z,4.70
2018-08-31T06:35:50.427Z,3.95
2018-08-31T06:36:54.629Z,4.97
2018-08-31T06:37:58.794Z,4.65
2018-08-31T06:39:03.042Z,3.87
2018-08-31T06:40:07.346Z,4.33
2018-08-31T06:41:11.592Z,4.00
2018-08-31T06:42:15.775Z,4.87
2018-08-31T06:43:19.964Z,4.45
2018-08-31T06:44:24.269Z,4.10
2018-08-31T06:45:28.503Z,4.50
2018-08-31T06:46:32.796Z,3.85
2018-08-31T06:47:36.944Z,4.37
2018-08-31T06:48:41.119Z,4.15
2018-08-31T06:49:45.331Z,4.62
2018-08-31T06:50:49.536Z,4.40
2018-08-31T06:51:54.013Z,4.85
2018-08-31T06:52:58.184Z,4.20
2018-08-31T06:54:02.347Z,4.05
2018-08-31T06:55:06.641Z,4.45
2018-08-31T06:56:11.243Z,3.20
2018-08-31T06:57:15.551Z,4.58
2018-08-31T06:58:19.727Z,4.05
2018-08-31T06:59:23.913Z,4.00
2018-08-31T07:00:28.119Z,4.15
2018-08-31T07:01:32.359Z,3.70
2018-08-31T07:02:36.576Z,5.08
2018-08-31T07:03:41.158Z,3.80
2018-08-31T07:04:45.338Z,3.80
2018-08-31T07:05:49.547Z,5.75
2018-08-31T07:06:53.967Z,3.85
2018-08-31T07:07:58.160Z,3.30
2018-08-31T07:09:02.372Z,3.90
2018-08-31T07:10:06.691Z,3.60
2018-08-31T07:11:10.866Z,4.20
2018-08-31T07:12:15.109Z,3.85
2018-08-31T07:13:19.242Z,3.42
2018-08-31T07:14:23.468Z,3.70
2018-08-31T07:15:27.724Z,3.00
2018-08-31T07:16:31.891Z,3.40
2018-08-31T07:17:36.368Z,3.87
2018-08-31T07:18:40.636Z,3.80
2018-08-31T07:19:44.847Z,4.58
2018-08-31T07:20:48.993Z,3.50
2018-08-31T07:21:53.170Z,4.83
2018-08-31T07:22:57.396Z,3.55
2018-08-31T07:24:01.568Z,3.22
2018-08-31T07:25:05.932Z,3.77
2018-08-31T07:26:10.590Z,3.17
2018-08-31T07:27:14.968Z,3.50
2018-08-31T07:28:19.200Z,2.80
2018-08-31T07:29:23.389Z,2.85
2018-08-31T07:30:27.566Z,2.58
2018-08-31T07:31:31.796Z,2.77
2018-08-31T07:32:36.016Z,3.20
2018-08-31T07:33:40.206Z,3.35
2018-08-31T07:34:44.366Z,2.27
2018-08-31T07:35:48.609Z,2.70
2018-08-31T07:36:52.699Z,2.75
2018-08-31T07:37:57.075Z,3.10
2018-08-31T07:39:01.496Z,2.72
2018-08-31T07:40:06.088Z,2.80
2018-08-31T07:41:10.263Z,3.02
2018-08-31T07:42:14.476Z,2.60
2018-08-31T07:43:18.631Z,2.87
2018-08-31T07:44:22.829Z,2.92
2018-08-31T07:45:27.001Z,3.02
2018-08-31T07:46:31.241Z,3.33
2018-08-31T07:47:35.395Z,3.20
2018-08-31T07:48:39.574Z,3.77
2018-08-31T07:49:43.780Z,3.45
2018-08-31T07:50:48.066Z,2.80
2018-08-31T07:51:52.264Z,2.80
2018-08-31T07:52:56.470Z,3.50
2018-08-31T07:54:00.964Z,3.00
2018-08-31T07:55:05.182Z,2.95
2018-08-31T07:56:09.365Z,2.72
2018-08-31T07:57:13.571Z,3.33
2018-08-31T07:58:17.793Z,2.95
2018-08-31T07:59:22.009Z,2.90
2018-08-31T08:00:26.214Z,2.72
2018-08-31T08:01:30.451Z,3.17
2018-08-31T08:02:34.639Z,2.90
2018-08-31T08:03:38.803Z,2.20
2018-08-31T08:04:43.447Z,2.77
2018-08-31T08:05:47.608Z,2.58
2018-08-31T08:06:51.860Z,2.10
2018-08-31T08:07:55.982Z,3.08
2018-08-31T08:09:00.304Z,2.52
2018-08-31T08:10:04.499Z,2.77
2018-08-31T08:11:08.727Z,2.92
2018-08-31T08:12:12.991Z,2.87
2018-08-31T08:13:17.125Z,2.20
2018-08-31T08:14:21.392Z,2.50
2018-08-31T08:15:25.780Z,2.50
2018-08-31T08:16:29.923Z,2.60
2018-08-31T08:17:34.279Z,2.05
2018-08-31T08:18:38.624Z,2.47
2018-08-31T08:19:42.783Z,2.20
2018-08-31T08:20:46.959Z,2.77
2018-08-31T08:21:51.179Z,2.75
2018-08-31T08:22:55.340Z,2.58
2018-08-31T08:23:59.470Z,2.30
2018-08-31T08:25:03.705Z,2.58
2018-08-31T08:26:07.956Z,2.17
2018-08-31T08:27:12.174Z,1.95
2018-08-31T08:28:16.354Z,2.10
2018-08-31T08:29:20.515Z,2.58
2018-08-31T08:30:24.687Z,2.50
2018-08-31T08:31:28.838Z,2.52
2018-08-31T08:32:33.019Z,2.20
2018-08-31T08:33:37.334Z,1.92
2018-08-31T08:34:41.480Z,2.30
2018-08-31T08:35:45.802Z,2.33
2018-08-31T08:36:49.947Z,2.35
2018-08-31T08:37:54.140Z,2.08
2018-08-31T08:38:58.293Z,2.75
2018-08-31T08:40:02.505Z,2.08
2018-08-31T08:41:06.728Z,2.02
2018-08-31T08:42:10.995Z,2.35
2018-08-31T08:43:15.140Z,1.90
2018-08-31T08:44:19.349Z,3.17
2018-08-31T08:45:23.587Z,2.00
2018-08-31T08:46:27.776Z,1.70
2018-08-31T08:47:32.045Z,1.80
2018-08-31T08:48:36.522Z,1.95
2018-08-31T08:49:40.486Z,1.70
2018-08-31T08:50:44.800Z,2.27
2018-08-31T08:51:48.948Z,2.05
2018-08-31T08:52:53.155Z,1.70
2018-08-31T08:53:57.338Z,1.82
2018-08-31T08:55:01.523Z,2.42
2018-08-31T08:56:06.259Z,1.95
2018-08-31T08:57:13.651Z,1.95
2018-08-31T08:58:17.928Z,2.27
2018-08-31T08:59:22.028Z,2.20
2018-08-31T09:00:26.192Z,2.05
2018-08-31T09:01:30.344Z,2.27
2018-08-31T09:02:34.492Z,2.95
2018-08-31T09:03:38.771Z,2.58
2018-08-31T09:04:43.303Z,2.25
2018-08-31T09:05:47.544Z,2.72
2018-08-31T09:06:51.938Z,2.15
2018-08-31T09:07:56.119Z,3.35
2018-08-31T09:09:00.362Z,2.70
2018-08-31T09:10:04.572Z,2.33
2018-08-31T09:11:08.876Z,2.22
2018-08-31T09:12:13.048Z,2.10
2018-08-31T09:13:17.183Z,2.50
2018-08-31T09:14:21.593Z,1.50
2018-08-31T09:15:25.799Z,1.90
2018-08-31T09:16:29.957Z,1.85
2018-08-31T09:17:34.149Z,2.33
2018-08-31T09:18:38.317Z,2.50
2018-08-31T09:19:42.495Z,2.80
2018-08-31T09:20:47.188Z,3.65
2018-08-31T09:21:51.372Z,2.20
2018-08-31T09:22:55.567Z,2.20
2018-08-31T09:24:00.196Z,1.87
2018-08-31T09:25:04.418Z,2.15
2018-08-31T09:26:11.131Z,2.27
2018-08-31T09:27:15.345Z,2.30
2018-08-31T09:28:19.563Z,2.58
2018-08-31T09:29:23.767Z,2.37
2018-08-31T09:30:33.384Z,2.87
2018-08-31T09:31:37.594Z,2.17
2018-08-31T09:32:41.884Z,2.52
2018-08-31T09:33:46.151Z,2.85
2018-08-31T09:34:51.727Z,2.20
2018-08-31T09:35:55.900Z,2.50
2018-08-31T09:37:00.137Z,2.17
2018-08-31T09:38:04.292Z,2.25
2018-08-31T09:39:09.127Z,2.10
2018-08-31T09:40:13.291Z,1.80
2018-08-31T09:41:17.511Z,1.90
2018-08-31T09:42:21.778Z,2.35
2018-08-31T09:43:26.099Z,2.12
2018-08-31T09:44:30.267Z,2.20
2018-08-31T09:45:34.451Z,1.80
2018-08-31T09:46:38.805Z,2.25
2018-08-31T09:47:43.114Z,2.67
2018-08-31T09:48:47.283Z,2.15
2018-08-31T09:49:51.438Z,1.52
2018-08-31T09:50:55.631Z,1.72
2018-08-31T09:51:59.894Z,1.90
2018-08-31T09:53:04.338Z,2.58
2018-08-31T09:54:09.250Z,2.58
2018-08-31T09:55:13.420Z,2.37
2018-08-31T09:56:17.640Z,2.15
2018-08-31T09:57:21.810Z,2.10
2018-08-31T09:58:26.287Z,2.10
2018-08-31T09:59:30.497Z,2.55
2018-08-31T10:00:39.925Z,1.80
2018-08-31T10:01:44.093Z,2.12
2018-08-31T10:02:53.660Z,2.30
2018-08-31T10:04:01.232Z,2.10
2018-08-31T10:05:06.691Z,2.50
2018-08-31T10:06:10.840Z,1.65
2018-08-31T10:07:15.143Z,2.30
2018-08-31T10:08:19.385Z,2.20
2018-08-31T10:09:23.562Z,2.10
2018-08-31T10:10:27.714Z,2.20
2018-08-31T10:11:32.061Z,2.27
2018-08-31T10:12:36.214Z,2.50
2018-08-31T10:13:40.659Z,1.90
2018-08-31T10:14:44.992Z,2.80
2018-08-31T10:15:49.240Z,2.40
2018-08-31T10:16:53.448Z,2.00
2018-08-31T10:17:57.576Z,1.87
2018-08-31T10:19:01.727Z,2.35
2018-08-31T10:20:06.062Z,2.85
2018-08-31T10:21:10.402Z,2.15
2018-08-31T10:22:14.882Z,2.30
2018-08-31T10:23:19.038Z,2.05
2018-08-31T10:24:23.184Z,2.27
2018-08-31T10:25:27.601Z,2.95
2018-08-31T10:26:31.907Z,2.22
2018-08-31T10:27:36.065Z,2.12
2018-08-31T10:28:40.241Z,2.20
2018-08-31T10:29:44.407Z,2.85
2018-08-31T10:30:48.827Z,2.27
2018-08-31T10:31:52.975Z,2.42
2018-08-31T10:32:57.147Z,2.45
2018-08-31T10:34:01.335Z,2.10
2018-08-31T10:35:06.027Z,2.65
2018-08-31T10:36:10.275Z,2.20
2018-08-31T10:37:14.695Z,1.85
2018-08-31T10:38:18.948Z,2.22
2018-08-31T10:39:23.223Z,2.02
2018-08-31T10:40:27.419Z,2.02
2018-08-31T10:41:31.631Z,2.90
2018-08-31T10:42:35.904Z,2.35
2018-08-31T10:43:40.243Z,3.55
2018-08-31T10:44:44.430Z,2.80
2018-08-31T10:45:48.575Z,2.40
2018-08-31T10:46:52.802Z,2.65
2018-08-31T10:47:57.008Z,2.55
2018-08-31T10:49:01.263Z,3.08
2018-08-31T10:50:06.982Z,2.83
2018-08-31T10:51:11.122Z,2.67
2018-08-31T10:52:15.319Z,2.50
2018-08-31T10:53:19.577Z,2.55
2018-08-31T10:54:23.801Z,2.45
2018-08-31T10:55:28.106Z,2.40
2018-08-31T10:56:32.275Z,2.90
2018-08-31T10:57:36.809Z,2.67
2018-08-31T10:58:41.028Z,2.50
2018-08-31T10:59:45.437Z,2.67
2018-08-31T11:00:49.644Z,2.17
2018-08-31T11:01:53.780Z,2.90
2018-08-31T11:02:58.464Z,2.40
2018-08-31T11:04:02.682Z,2.85
2018-08-31T11:05:07.174Z,2.60
2018-08-31T11:06:11.387Z,2.62
2018-08-31T11:07:15.577Z,2.15
2018-08-31T11:08:19.870Z,2.40
2018-08-31T11:09:24.105Z,2.95
2018-08-31T11:10:28.308Z,2.55
2018-08-31T11:11:32.720Z,2.47
2018-08-31T11:12:37.147Z,2.42
2018-08-31T11:13:41.380Z,2.75
2018-08-31T11:14:45.591Z,2.10
2018-08-31T11:15:49.786Z,2.25
2018-08-31T11:16:54.124Z,2.35
2018-08-31T11:17:58.366Z,2.40
2018-08-31T11:19:03.081Z,2.52
2018-08-31T11:20:07.385Z,1.87
2018-08-31T11:21:14.866Z,2.15
2018-08-31T11:22:19.277Z,2.10
2018-08-31T11:23:23.524Z,1.90
2018-08-31T11:24:27.747Z,2.10
2018-08-31T11:25:32.080Z,2.20
2018-08-31T11:26:36.506Z,2.10
2018-08-31T11:27:40.694Z,1.72
2018-08-31T11:28:44.872Z,1.98
2018-08-31T11:29:49.451Z,1.90
2018-08-31T11:30:53.839Z,2.20
2018-08-31T11:31:58.084Z,1.70
2018-08-31T11:33:02.353Z,2.50
2018-08-31T11:34:06.761Z,1.70
2018-08-31T11:35:10.969Z,2.00
2018-08-31T11:36:15.171Z,1.95
2018-08-31T11:37:19.354Z,1.87
2018-08-31T11:38:27.985Z,1.70
2018-08-31T11:39:32.185Z,1.77
2018-08-31T11:40:36.395Z,2.17
2018-08-31T11:41:40.804Z,2.00
2018-08-31T11:42:45.011Z,2.20
2018-08-31T11:43:49.321Z,2.05
2018-08-31T11:44:53.727Z,1.80
2018-08-31T11:45:57.963Z,2.05
2018-08-31T11:47:02.351Z,1.87
2018-08-31T11:48:06.548Z,1.50
2018-08-31T11:49:10.724Z,2.15
2018-08-31T11:50:14.960Z,1.45
2018-08-31T11:51:19.166Z,1.52
2018-08-31T11:52:23.636Z,1.80
2018-08-31T11:53:27.813Z,1.70
2018-08-31T11:54:32.189Z,1.90
2018-08-31T11:55:36.600Z,1.40
2018-08-31T11:56:40.790Z,1.70
2018-08-31T11:57:44.986Z,1.40
2018-08-31T11:58:49.159Z,1.40
2018-08-31T11:59:53.684Z,1.65
2018-08-31T12:00:57.889Z,2.58
2018-08-31T12:02:02.351Z,2.20
2018-08-31T12:03:06.454Z,1.40
2018-08-31T12:04:10.673Z,1.90
2018-08-31T12:05:15.110Z,1.50
2018-08-31T12:06:19.292Z,1.50
2018-08-31T12:07:23.474Z,2.10
2018-08-31T12:08:27.661Z,1.90
2018-08-31T12:09:31.847Z,1.70
2018-08-31T12:10:36.029Z,1.37
2018-08-31T12:11:40.392Z,1.60
2018-08-31T12:12:44.664Z,1.90
2018-08-31T12:13:49.115Z,1.75
2018-08-31T12:14:53.464Z,1.60
2018-08-31T12:15:57.664Z,1.55
2018-08-31T12:17:01.827Z,2.33
2018-08-31T12:18:06.547Z,1.50
2018-08-31T12:19:10.707Z,1.50
2018-08-31T12:20:14.909Z,1.45
2018-08-31T12:21:19.259Z,2.00
2018-08-31T12:22:23.407Z,1.70
2018-08-31T12:23:27.673Z,2.65
2018-08-31T12:24:31.836Z,1.52
2018-08-31T12:25:36.131Z,1.67
2018-08-31T12:26:40.290Z,1.70
2018-08-31T12:27:46.206Z,1.72
2018-08-31T12:28:50.444Z,1.57
2018-08-31T12:29:54.640Z,1.72
2018-08-31T12:30:58.795Z,1.70
2018-08-31T12:32:03.212Z,1.47
2018-08-31T12:33:07.452Z,1.20
2018-08-31T12:34:11.591Z,2.30
2018-08-31T12:35:15.784Z,1.75
2018-08-31T12:36:20.107Z,1.47
2018-08-31T12:37:24.305Z,2.20
2018-08-31T12:38:29.284Z,1.80
2018-08-31T12:39:33.509Z,1.55
2018-08-31T12:40:37.726Z,1.67
2018-08-31T12:41:41.912Z,1.70
2018-08-31T12:42:46.232Z,1.92
2018-08-31T12:43:51.468Z,1.90
2018-08-31T12:44:55.879Z,1.77
2018-08-31T12:46:00.489Z,1.80
2018-08-31T12:47:04.956Z,1.80
2018-08-31T12:48:09.204Z,1.40
2018-08-31T12:49:13.359Z,1.85
2018-08-31T12:50:17.579Z,1.70
2018-08-31T12:51:21.956Z,2.10
2018-08-31T12:52:26.115Z,2.33
2018-08-31T12:53:30.433Z,1.70
2018-08-31T12:54:34.804Z,1.50
2018-08-31T12:55:39.358Z,1.55
2018-08-31T12:56:43.569Z,2.00
2018-08-31T12:57:47.736Z,2.08
2018-08-31T12:58:51.939Z,1.75
2018-08-31T12:59:59.811Z,1.90
2018-08-31T13:01:04.153Z,1.90
2018-08-31T13:02:08.415Z,1.92
2018-08-31T13:03:12.615Z,1.80
2018-08-31T13:04:16.981Z,2.27
2018-08-31T13:05:21.444Z,1.70
2018-08-31T13:06:25.651Z,1.60
2018-08-31T13:07:29.843Z,1.90
2018-08-31T13:08:34.124Z,1.67
2018-08-31T13:09:38.337Z,1.60
2018-08-31T13:10:42.529Z,1.62
2018-08-31T13:11:46.711Z,1.80
2018-08-31T13:12:51.145Z,1.80
2018-08-31T13:13:55.292Z,1.60
2018-08-31T13:14:59.540Z,1.60
2018-08-31T13:16:03.703Z,1.32
2018-08-31T13:17:07.904Z,1.30
2018-08-31T13:18:12.082Z,1.25
2018-08-31T13:19:16.277Z,1.98
2018-08-31T13:20:20.479Z,1.60
2018-08-31T13:21:24.636Z,1.67
2018-08-31T13:22:28.846Z,1.47
2018-08-31T13:23:33.093Z,1.92
2018-08-31T13:24:37.276Z,1.95
2018-08-31T13:25:41.564Z,1.80
2018-08-31T13:26:45.751Z,1.82
2018-08-31T13:27:49.943Z,1.62
2018-08-31T13:28:54.142Z,1.90
2018-08-31T13:29:58.346Z,2.08
2018-08-31T13:31:03.110Z,1.80
2018-08-31T13:32:07.290Z,1.80
2018-08-31T13:33:11.476Z,1.60
2018-08-31T13:34:15.634Z,1.98
2018-08-31T13:35:19.795Z,1.60
2018-08-31T13:36:23.981Z,2.47
2018-08-31T13:37:28.165Z,2.00
2018-08-31T13:38:32.528Z,1.50
2018-08-31T13:39:36.905Z,1.30
2018-08-31T13:40:41.096Z,1.30
2018-08-31T13:41:45.247Z,2.20
2018-08-31T13:42:49.607Z,1.50
2018-08-31T13:43:54.095Z,1.90
2018-08-31T13:44:58.255Z,1.60
2018-08-31T13:46:02.583Z,2.47
2018-08-31T13:47:06.733Z,2.10
2018-08-31T13:48:10.908Z,1.57
2018-08-31T13:49:15.191Z,1.70
2018-08-31T13:50:19.379Z,1.92
2018-08-31T13:51:23.539Z,1.40
2018-08-31T13:52:27.759Z,1.70
2018-08-31T13:53:31.915Z,1.70
2018-08-31T13:54:36.170Z,1.95
2018-08-31T13:55:40.397Z,1.72
2018-08-31T13:56:44.556Z,1.75
2018-08-31T13:57:48.732Z,1.52
2018-08-31T13:58:52.888Z,1.75
2018-08-31T13:59:57.079Z,1.72
2018-08-31T14:01:01.226Z,1.70
2018-08-31T14:02:05.395Z,2.00
2018-08-31T14:03:09.558Z,2.10
2018-08-31T14:04:13.707Z,1.90
2018-08-31T14:05:17.968Z,1.45
2018-08-31T14:06:22.658Z,1.77
2018-08-31T14:07:27.113Z,1.95
2018-08-31T14:08:31.275Z,2.40
2018-08-31T14:09:35.450Z,1.72
2018-08-31T14:10:39.687Z,1.82
2018-08-31T14:11:43.964Z,2.87
2018-08-31T14:12:48.177Z,1.60
2018-08-31T14:13:52.374Z,2.22
2018-08-31T14:14:56.586Z,2.20
2018-08-31T14:16:00.792Z,1.90
2018-08-31T14:17:05.222Z,1.70
2018-08-31T14:18:09.399Z,2.05
2018-08-31T14:19:13.605Z,2.05
2018-08-31T14:20:18.044Z,1.80
2018-08-31T14:21:22.323Z,1.92
2018-08-31T14:22:26.447Z,2.27
2018-08-31T14:23:30.629Z,1.70
2018-08-31T14:24:34.775Z,1.70
2018-08-31T14:25:40.093Z,1.55
2018-08-31T14:26:44.283Z,1.98
2018-08-31T14:27:48.446Z,1.77
2018-08-31T14:28:52.753Z,1.60
2018-08-31T14:29:57.031Z,2.22
2018-08-31T14:31:01.056Z,1.70
2018-08-31T14:32:05.267Z,1.55
2018-08-31T14:33:09.444Z,1.80